Bissett, Canada
Current Conditions -  °F | °C
As of 8:25 PM on Friday 24 Oct 2014 (Local Time) from CYRL Reporting Station
Few Clouds Few Clouds  
Wind Chill: 10°   Ceiling: Unl
Heat Index: 10°   Visibility: 15mi
Dew Point:   Wind: 14mph
Humidity: 71%   Direction: 280°W
Pressure: 29.56"   Gusts: 24mph
Location:  51.02°N, 95.67°W
Report Text: CYRL 250125Z 28012G21KT 15SM FEW025 10/05 A2956 RMK SC2 SLP021 DENSITY ALT 1400FT
Loading
Personal Weather Stations






























Interactive Weather Map
Tropical Storm Tracking
New forecast layout! Learn more

10-Day Weather Forecast

Advertisements
Track Severe Weather on mobile